Terminal Aerodrome Forecast
Issued by NWS

Home | Current Version | Previous Version | Text Only | Print | Product List | Glossary On
Versions: 1 2 3 4 5 6 7 8 9 10 11 12 13 14 15 16 17 18
000
FTUS46 KSEW 010524
TAFHQM
TAF
KHQM 010524Z 0106/0206 25005KT P6SM SKC
     FM011000 24004KT 6SM BR BKN006
      TEMPO 0113/0116 1/2SM FG OVC002
     FM011700 27006KT 6SM HZ SCT005
     FM011900 25012KT P6SM SKC=

USA.gov is the U.S. government's official web portal to all federal, state and local government web resources and services.